Knoxville, Arkansas
Current Conditions -  °F | °C
As of 10:53 PM on Wednesday 22 Oct 2014 (Local Time) from KRUE Reporting Station
Clear Clear  
Wind Chill: 54°   Ceiling: Unl
Heat Index: 54°   Visibility: 10mi
Dew Point: 49°   Wind: 3mph
Humidity: 83%   Direction: 90°E
Pressure: 30.19"   Gusts: NA
Location:  35.38°N, 93.36°W
Report Text: KRUE 230353Z AUTO 09003KT 10SM CLR 12/09 A3019 RMK AO2 SLP217 T01220094
Loading
Personal Weather Stations






























Interactive Weather Map
Tropical Storm Tracking
New forecast layout! Learn more

10-Day Weather Forecast

Advertisements
Track Severe Weather on mobile